Time;durP1;ratioP1;P1;durP2;ratioP2;P2;SDS_P1;SDS_P2;PMS_P1;PMS_P2;Temp;Humidity;BMP_temperature;BMP_pressure;BME280_temperature;BME280_humidity;BME280_pressure;Samples;Min_cycle;Max_cycle;Signal;HPM_P1;HPM_P2
2021/12/18 00:01:06;;;;;;;1.20;1.10;;;22.90;50.20;;;;;;4995888;28;20039;-59
2021/12/18 00:03:32;;;;;;;1.08;0.95;;;22.80;50.20;;;;;;4988974;28;20151;-59
2021/12/18 00:05:58;;;;;;;1.70;1.30;;;22.80;50.30;;;;;;5000192;28;20049;-59
2021/12/18 00:08:24;;;;;;;1.40;0.98;;;22.80;50.30;;;;;;4982367;28;20049;-58
2021/12/18 00:10:50;;;;;;;1.25;1.15;;;22.70;50.30;;;;;;4994224;28;20045;-59
2021/12/18 00:13:16;;;;;;;1.13;0.95;;;22.70;50.30;;;;;;4989907;28;20156;-59
2021/12/18 00:15:41;;;;;;;1.30;0.80;;;22.70;50.30;;;;;;5000214;28;20034;-59
2021/12/18 00:18:07;;;;;;;2.25;0.90;;;22.70;50.30;;;;;;4978502;28;20042;-59
2021/12/18 00:20:35;;;;;;;2.50;1.00;;;22.60;50.40;;;;;;4984341;28;20034;-59
2021/12/18 00:23:01;;;;;;;1.35;1.08;;;22.60;50.40;;;;;;4998855;28;20442;-59
2021/12/18 00:25:27;;;;;;;1.90;0.90;;;22.60;50.40;;;;;;4987275;28;20069;-59
2021/12/18 00:27:52;;;;;;;0.70;0.70;;;22.60;50.40;;;;;;4993649;28;20042;-59
2021/12/18 00:30:18;;;;;;;1.30;0.90;;;22.50;50.50;;;;;;4996941;28;20074;-59
2021/12/18 00:32:44;;;;;;;0.63;0.63;;;22.50;50.40;;;;;;4996626;28;20043;-59
2021/12/18 00:35:09;;;;;;;1.73;0.90;;;22.50;50.50;;;;;;4991611;28;20038;-59
2021/12/18 00:37:35;;;;;;;1.33;1.00;;;22.50;50.50;;;;;;5000466;28;20042;-59
2021/12/18 00:40:05;;;;;;;0.75;0.73;;;22.50;50.50;;;;;;4982756;28;20049;-59
2021/12/18 00:45:05;;;;;;;2.08;0.88;;;22.40;50.60;;;;;;4990807;28;20050;-59
2021/12/18 00:47:31;;;;;;;1.83;1.00;;;22.40;50.60;;;;;;4992905;28;20492;-59
2021/12/18 00:49:57;;;;;;;1.58;1.00;;;22.30;50.60;;;;;;4996741;28;20046;-59
2021/12/18 00:52:23;;;;;;;1.00;0.90;;;22.30;50.60;;;;;;4992585;28;20031;-59
2021/12/18 00:54:49;;;;;;;2.28;0.82;;;22.30;50.70;;;;;;4992407;28;20473;-59
2021/12/18 00:57:15;;;;;;;1.77;0.80;;;22.30;50.60;;;;;;4990545;28;20038;-59
2021/12/18 00:59:40;;;;;;;1.38;0.80;;;22.20;50.60;;;;;;4980105;28;20042;-59
2021/12/18 01:02:06;;;;;;;0.93;0.70;;;22.20;50.60;;;;;;4991434;28;20042;-59
2021/12/18 01:04:32;;;;;;;1.58;0.90;;;22.20;50.70;;;;;;4994559;28;20054;-59
2021/12/18 01:06:58;;;;;;;2.13;0.80;;;22.10;50.60;;;;;;4993311;28;20038;-57
2021/12/18 01:09:38;;;;;;;0.90;0.90;;;22.10;50.70;;;;;;4986272;28;20046;-59
2021/12/18 01:12:06;;;;;;;0.60;0.60;;;22.10;50.60;;;;;;4996875;28;20128;-59
2021/12/18 01:14:51;;;;;;;1.23;0.73;;;22.10;50.60;;;;;;4989612;28;20289;-59
2021/12/18 01:22:48;;;;;;;0.50;0.50;;;22.00;50.80;;;;;;4987838;28;20046;-59
2021/12/18 01:25:16;;;;;;;0.75;0.50;;;22.00;50.70;;;;;;4994944;28;20046;-59
2021/12/18 01:27:42;;;;;;;1.23;0.82;;;22.00;50.80;;;;;;4989170;28;20050;-59
2021/12/18 01:30:11;;;;;;;1.25;0.88;;;22.00;51.40;;;;;;4989846;28;20477;-59
2021/12/18 01:32:36;;;;;;;1.02;0.60;;;21.90;50.70;;;;;;4977096;28;20043;-59
2021/12/18 01:35:03;;;;;;;1.02;0.52;;;21.90;50.70;;;;;;4976927;28;20049;-59
2021/12/18 01:37:29;;;;;;;0.95;0.50;;;21.90;50.70;;;;;;4981851;28;20872;-59
2021/12/18 01:39:55;;;;;;;0.70;0.60;;;21.90;50.80;;;;;;4974432;28;20145;-59
2021/12/18 01:45:17;;;;;;;0.65;0.65;;;21.80;50.80;;;;;;4986595;28;20097;-59
2021/12/18 01:53:11;;;;;;;2.72;0.52;;;21.80;51.20;;;;;;4976461;28;20098;-59
2021/12/18 01:55:38;;;;;;;1.02;0.60;;;21.80;51.20;;;;;;4976166;28;20126;-59
2021/12/18 01:58:06;;;;;;;0.57;0.57;;;21.80;51.20;;;;;;4970323;28;20053;-59
2021/12/18 02:00:38;;;;;;;1.25;0.70;;;21.70;51.10;;;;;;4973188;28;20182;-59
2021/12/18 02:03:05;;;;;;;1.27;0.30;;;21.70;51.10;;;;;;4986132;28;20042;-59
2021/12/18 02:05:31;;;;;;;0.88;0.40;;;21.70;51.20;;;;;;4987715;28;20125;-59
2021/12/18 02:07:56;;;;;;;1.35;0.40;;;21.70;51.20;;;;;;4995026;28;20174;-59
2021/12/18 02:10:26;;;;;;;0.65;0.50;;;21.70;51.20;;;;;;4987874;28;20041;-59
2021/12/18 02:13:06;;;;;;;0.65;0.50;;;21.60;51.10;;;;;;4973147;28;20050;-58
2021/12/18 02:21:11;;;;;;;0.28;0.28;;;21.60;51.20;;;;;;4978614;28;20055;-59
2021/12/18 02:23:40;;;;;;;0.85;0.40;;;21.60;51.20;;;;;;4972839;28;20047;-59
2021/12/18 02:26:06;;;;;;;0.57;0.45;;;21.50;51.10;;;;;;4970900;28;20050;-59
2021/12/18 02:28:31;;;;;;;0.50;0.40;;;21.60;51.10;;;;;;4979026;28;20045;-59
2021/12/18 02:30:58;;;;;;;1.13;0.40;;;21.50;51.10;;;;;;4991867;28;20122;-59
2021/12/18 02:33:25;;;;;;;0.40;0.40;;;21.50;51.00;;;;;;4992130;28;20176;-58
2021/12/18 02:35:53;;;;;;;0.35;0.35;;;21.50;51.00;;;;;;4986240;28;20038;-59
2021/12/18 02:38:23;;;;;;;0.30;0.30;;;21.50;51.10;;;;;;4982572;28;20038;-59
2021/12/18 02:43:32;;;;;;;0.82;0.40;;;21.50;51.20;;;;;;4982236;28;20050;-59
2021/12/18 02:45:59;;;;;;;0.85;0.40;;;21.40;51.00;;;;;;4975196;28;20054;-58
2021/12/18 02:48:29;;;;;;;0.50;0.50;;;21.40;51.10;;;;;;4986398;28;20061;-60
2021/12/18 02:50:58;;;;;;;1.00;0.30;;;21.40;51.00;;;;;;4991198;28;20049;-59
2021/12/18 02:53:25;;;;;;;0.68;0.40;;;21.40;51.00;;;;;;4992411;28;20049;-59
2021/12/18 02:55:59;;;;;;;0.60;0.30;;;21.40;51.00;;;;;;4988515;28;20117;-59
2021/12/18 02:58:26;;;;;;;1.33;0.30;;;21.40;51.00;;;;;;4991807;28;20092;-59
2021/12/18 03:00:53;;;;;;;0.22;0.22;;;21.30;50.90;;;;;;4986014;28;20034;-59
2021/12/18 03:03:19;;;;;;;0.63;0.30;;;21.30;50.90;;;;;;4982842;28;20122;-59
2021/12/18 03:06:00;;;;;;;0.47;0.30;;;21.30;51.00;;;;;;4989093;28;20118;-59
2021/12/18 03:08:39;;;;;;;1.35;0.30;;;21.30;51.00;;;;;;4993881;28;20054;-59
2021/12/18 03:24:32;;;;;;;0.20;0.20;;;21.20;50.80;;;;;;4989962;28;20405;-59
2021/12/18 03:26:57;;;;;;;0.40;0.20;;;21.20;50.80;;;;;;4987331;28;20355;-59
2021/12/18 03:29:23;;;;;;;0.43;0.30;;;21.20;50.90;;;;;;4994528;28;20469;-59
2021/12/18 03:31:49;;;;;;;0.35;0.22;;;21.10;50.80;;;;;;4983645;28;20105;-59
2021/12/18 03:34:14;;;;;;;0.30;0.30;;;21.20;50.90;;;;;;4988334;28;20421;-59
2021/12/18 03:36:40;;;;;;;0.65;0.20;;;21.20;50.80;;;;;;4977006;28;20046;-58
2021/12/18 03:39:06;;;;;;;1.13;0.30;;;21.20;50.70;;;;;;4976306;28;20042;-60
2021/12/18 03:41:32;;;;;;;0.32;0.28;;;21.10;50.70;;;;;;4982610;28;20050;-59
2021/12/18 03:43:57;;;;;;;0.65;0.30;;;21.10;50.80;;;;;;4989681;28;20112;-58
2021/12/18 03:46:23;;;;;;;0.57;0.20;;;21.10;50.70;;;;;;4990659;28;20073;-59
2021/12/18 03:48:49;;;;;;;0.28;0.25;;;21.10;50.60;;;;;;4988730;28;20049;-59
2021/12/18 03:51:14;;;;;;;0.30;0.30;;;21.10;50.60;;;;;;4972994;28;20043;-59
2021/12/18 03:53:40;;;;;;;1.75;0.50;;;21.10;50.50;;;;;;4971923;28;20137;-59
2021/12/18 03:56:05;;;;;;;0.95;0.30;;;21.10;50.50;;;;;;4987966;28;20112;-59
2021/12/18 03:58:31;;;;;;;0.68;0.45;;;21.10;50.70;;;;;;4993520;28;20077;-59
2021/12/18 04:00:57;;;;;;;0.80;0.50;;;21.00;50.50;;;;;;4971740;28;20051;-59
2021/12/18 04:03:23;;;;;;;0.45;0.25;;;21.00;50.60;;;;;;4959380;28;20042;-59
2021/12/18 04:05:49;;;;;;;1.73;0.50;;;21.00;50.50;;;;;;4974051;28;20042;-59
2021/12/18 04:08:15;;;;;;;0.75;0.40;;;21.00;50.50;;;;;;4974252;28;20039;-59
2021/12/18 04:10:41;;;;;;;1.58;0.50;;;21.00;50.50;;;;;;4970405;28;20035;-59
2021/12/18 04:13:08;;;;;;;0.55;0.30;;;21.00;50.50;;;;;;4986574;28;20050;-59
2021/12/18 04:15:34;;;;;;;0.28;0.28;;;21.00;50.40;;;;;;4977672;28;20039;-59
2021/12/18 04:18:00;;;;;;;3.10;0.47;;;21.00;50.40;;;;;;4974205;28;20042;-58
2021/12/18 04:20:26;;;;;;;0.65;0.40;;;21.00;50.50;;;;;;4979818;28;20042;-58
2021/12/18 04:22:53;;;;;;;1.20;0.50;;;20.90;50.50;;;;;;4996868;28;20402;-58
2021/12/18 04:25:19;;;;;;;0.32;0.30;;;20.90;50.50;;;;;;4992449;28;20054;-58
2021/12/18 04:27:45;;;;;;;2.08;0.30;;;20.90;50.40;;;;;;4993661;28;20042;-57
2021/12/18 04:30:11;;;;;;;1.55;0.55;;;20.90;50.40;;;;;;4977711;28;20046;-58
2021/12/18 04:32:37;;;;;;;0.30;0.30;;;20.90;50.20;;;;;;4975502;28;20034;-58
2021/12/18 04:35:03;;;;;;;0.98;0.32;;;20.90;50.20;;;;;;4975461;28;20528;-58
2021/12/18 04:37:28;;;;;;;0.20;0.20;;;20.90;50.20;;;;;;4991199;28;20492;-58
2021/12/18 04:39:55;;;;;;;0.25;0.25;;;20.90;50.10;;;;;;4981630;28;20094;-57
2021/12/18 04:42:20;;;;;;;0.30;0.30;;;20.90;50.10;;;;;;4991675;28;20434;-58
2021/12/18 04:44:46;;;;;;;0.20;0.20;;;20.90;50.10;;;;;;4976461;28;20043;-58
2021/12/18 04:47:12;;;;;;;0.73;0.20;;;20.80;50.20;;;;;;4977594;28;20473;-58
2021/12/18 04:49:38;;;;;;;0.57;0.30;;;20.80;50.10;;;;;;4979876;28;20042;-59
2021/12/18 04:52:04;;;;;;;0.57;0.40;;;20.80;50.00;;;;;;4974185;28;20042;-58
2021/12/18 04:54:29;;;;;;;0.43;0.40;;;20.80;50.00;;;;;;4991077;28;20085;-58
2021/12/18 04:56:55;;;;;;;0.38;0.30;;;20.80;50.30;;;;;;4989524;28;20046;-58
2021/12/18 04:59:21;;;;;;;0.40;0.40;;;20.80;50.00;;;;;;4995849;28;20042;-58
2021/12/18 05:01:47;;;;;;;1.00;0.30;;;20.80;50.00;;;;;;4971806;28;20043;-58
2021/12/18 05:04:14;;;;;;;1.15;0.50;;;20.80;50.10;;;;;;4986543;28;20121;-58
2021/12/18 05:06:44;;;;;;;1.17;0.40;;;20.80;50.10;;;;;;4984827;28;20035;-58
2021/12/18 05:09:11;;;;;;;0.95;0.35;;;20.70;50.00;;;;;;4984406;28;20054;-58
2021/12/18 05:11:36;;;;;;;0.63;0.30;;;20.70;50.00;;;;;;4974520;28;20125;-58
2021/12/18 05:14:02;;;;;;;0.28;0.28;;;20.70;50.00;;;;;;4991731;28;20133;-58
2021/12/18 05:16:28;;;;;;;0.30;0.30;;;20.70;50.00;;;;;;4988421;28;20042;-58
2021/12/18 05:18:54;;;;;;;0.10;0.10;;;20.70;50.00;;;;;;4988501;28;20042;-58
2021/12/18 05:21:19;;;;;;;1.08;0.40;;;20.70;49.90;;;;;;4969281;28;20501;-58
2021/12/18 05:23:45;;;;;;;1.45;0.20;;;20.70;50.00;;;;;;4973985;28;20050;-58
2021/12/18 05:26:11;;;;;;;0.25;0.20;;;20.70;49.90;;;;;;4986359;28;20043;-58
2021/12/18 05:28:37;;;;;;;0.20;0.20;;;20.70;49.80;;;;;;4975567;28;20385;-57
2021/12/18 05:31:03;;;;;;;0.40;0.30;;;20.60;49.80;;;;;;4976367;28;20525;-58
2021/12/18 05:33:28;;;;;;;0.57;0.38;;;20.60;49.60;;;;;;4970627;28;20062;-58
2021/12/18 05:35:54;;;;;;;0.30;0.30;;;20.60;49.60;;;;;;4975074;28;20130;-58
2021/12/18 05:38:19;;;;;;;0.40;0.40;;;20.60;49.70;;;;;;4990152;28;20042;-58
2021/12/18 05:40:45;;;;;;;0.52;0.52;;;20.60;49.70;;;;;;4995816;28;20053;-58
2021/12/18 05:43:10;;;;;;;0.38;0.38;;;20.60;49.70;;;;;;4988211;28;20038;-58
2021/12/18 05:45:37;;;;;;;0.50;0.40;;;20.60;49.60;;;;;;4995649;28;20109;-58
2021/12/18 05:48:04;;;;;;;0.40;0.40;;;20.60;49.70;;;;;;4985991;28;20216;-58
2021/12/18 05:50:30;;;;;;;0.30;0.30;;;20.60;49.70;;;;;;4989334;28;20049;-58
2021/12/18 05:52:58;;;;;;;0.50;0.40;;;20.60;49.60;;;;;;4992752;28;20073;-58
2021/12/18 05:55:25;;;;;;;0.60;0.60;;;20.60;49.60;;;;;;4990258;28;20481;-58
2021/12/18 05:57:52;;;;;;;0.70;0.70;;;20.60;49.60;;;;;;4989078;28;20383;-58
2021/12/18 06:00:18;;;;;;;1.10;1.00;;;20.50;49.50;;;;;;4992256;28;20354;-58
2021/12/18 06:02:44;;;;;;;0.70;0.70;;;20.50;49.50;;;;;;4992647;28;20042;-58
2021/12/18 06:05:10;;;;;;;1.42;1.33;;;20.50;49.40;;;;;;4972259;28;20122;-58
2021/12/18 06:07:53;;;;;;;2.40;2.20;;;20.50;49.50;;;;;;4974704;28;20046;-58
2021/12/18 06:10:20;;;;;;;3.08;2.22;;;20.50;49.50;;;;;;4975819;28;20473;-58
2021/12/18 06:12:45;;;;;;;2.55;2.10;;;20.50;49.50;;;;;;4981027;28;20108;-58
2021/12/18 06:15:11;;;;;;;2.65;2.10;;;20.50;49.50;;;;;;4987701;28;20446;-58
2021/12/18 06:17:37;;;;;;;3.53;2.85;;;20.50;49.50;;;;;;4973485;28;20427;-58
2021/12/18 06:20:02;;;;;;;4.38;2.90;;;20.50;49.40;;;;;;4979894;28;20504;-58
2021/12/18 06:22:28;;;;;;;3.13;2.67;;;20.50;49.40;;;;;;4989335;28;20100;-58
2021/12/18 06:24:54;;;;;;;6.10;4.00;;;20.50;49.40;;;;;;4989584;28;20089;-58
2021/12/18 06:27:19;;;;;;;3.97;3.20;;;20.40;49.40;;;;;;4988381;28;20034;-58
2021/12/18 06:29:47;;;;;;;4.95;3.63;;;20.50;49.50;;;;;;4991759;28;20046;-58
2021/12/18 06:32:12;;;;;;;4.50;3.75;;;20.50;49.50;;;;;;4974320;28;20038;-58
2021/12/18 06:34:38;;;;;;;4.03;3.13;;;20.50;49.60;;;;;;4976528;28;20047;-58
2021/12/18 06:37:04;;;;;;;4.22;3.60;;;20.50;49.60;;;;;;4983209;28;20077;-58
2021/12/18 06:39:29;;;;;;;3.83;3.42;;;20.40;49.70;;;;;;4987819;28;20501;-58
2021/12/18 06:41:55;;;;;;;4.28;3.35;;;20.50;49.70;;;;;;4991602;28;20035;-58
2021/12/18 06:44:20;;;;;;;3.28;2.90;;;20.50;49.70;;;;;;4987026;28;20038;-58
2021/12/18 06:46:46;;;;;;;3.40;3.10;;;20.50;49.80;;;;;;4977950;28;20129;-58
2021/12/18 06:49:12;;;;;;;3.72;3.00;;;20.50;49.80;;;;;;4988907;28;20382;-58
2021/12/18 06:51:39;;;;;;;3.20;2.88;;;20.50;49.90;;;;;;4969618;28;20070;-59
2021/12/18 06:54:05;;;;;;;3.50;3.20;;;20.50;49.90;;;;;;4975233;28;20038;-58
2021/12/18 06:56:31;;;;;;;3.05;2.72;;;20.50;49.90;;;;;;4975199;28;20136;-59
2021/12/18 06:58:56;;;;;;;3.20;2.40;;;20.50;49.90;;;;;;4990846;28;20046;-59
2021/12/18 07:01:22;;;;;;;2.50;2.28;;;20.50;50.00;;;;;;4991048;28;20124;-59
2021/12/18 07:03:47;;;;;;;3.28;2.65;;;20.50;49.90;;;;;;4982337;28;20042;-59
2021/12/18 07:06:13;;;;;;;4.32;2.67;;;20.50;49.90;;;;;;4980847;28;20034;-59
2021/12/18 07:08:40;;;;;;;3.10;1.95;;;20.50;50.00;;;;;;4994216;28;20046;-59
2021/12/18 07:11:05;;;;;;;2.72;2.35;;;20.50;50.60;;;;;;4984009;28;20390;-59
2021/12/18 07:13:31;;;;;;;2.40;2.20;;;20.40;50.30;;;;;;4980755;28;20030;-59
2021/12/18 07:15:56;;;;;;;3.35;2.30;;;20.50;50.20;;;;;;4994641;28;20350;-59
2021/12/18 07:18:22;;;;;;;2.50;2.00;;;20.40;50.10;;;;;;4990071;28;20069;-59
2021/12/18 07:20:48;;;;;;;2.20;1.77;;;20.50;50.20;;;;;;4994057;28;20054;-59
2021/12/18 07:23:14;;;;;;;2.10;1.90;;;20.50;50.20;;;;;;4991479;28;20332;-59
2021/12/18 07:25:40;;;;;;;2.10;1.85;;;20.50;50.20;;;;;;4991349;28;20171;-59
2021/12/18 07:28:05;;;;;;;2.30;1.92;;;20.50;50.10;;;;;;4990866;28;20091;-59
2021/12/18 07:30:31;;;;;;;1.83;1.70;;;20.50;50.10;;;;;;4986162;28;20054;-59
2021/12/18 07:32:56;;;;;;;3.33;1.50;;;20.50;50.00;;;;;;4979275;28;20038;-59
2021/12/18 07:35:22;;;;;;;2.75;1.88;;;20.50;50.70;;;;;;4990455;28;20122;-59
2021/12/18 07:37:47;;;;;;;1.77;1.48;;;20.50;49.90;;;;;;4990548;28;20066;-59
2021/12/18 07:40:15;;;;;;;2.13;1.92;;;20.50;50.00;;;;;;4994357;28;20094;-59
2021/12/18 07:42:40;;;;;;;1.98;1.75;;;20.60;49.90;;;;;;4975232;28;20047;-59
2021/12/18 07:45:07;;;;;;;1.55;1.40;;;20.60;49.90;;;;;;4974400;28;20041;-59
2021/12/18 07:47:32;;;;;;;2.30;1.60;;;20.60;49.90;;;;;;4976718;28;20048;-59
2021/12/18 07:49:58;;;;;;;1.80;1.65;;;20.50;49.80;;;;;;4986206;28;20117;-59
2021/12/18 07:52:24;;;;;;;3.10;1.88;;;20.60;49.80;;;;;;4993809;28;20050;-59
2021/12/18 07:54:50;;;;;;;2.22;1.38;;;20.60;49.80;;;;;;4984183;28;20046;-60
2021/12/18 07:57:15;;;;;;;1.30;1.20;;;20.60;49.70;;;;;;4993875;28;20038;-60
2021/12/18 07:59:41;;;;;;;2.85;1.55;;;20.60;49.70;;;;;;4990321;28;20056;-60
2021/12/18 08:02:07;;;;;;;5.43;2.03;;;20.60;49.70;;;;;;4997666;28;20439;-60
2021/12/18 08:04:33;;;;;;;1.83;1.40;;;20.60;49.80;;;;;;4996905;28;20096;-60
2021/12/18 08:06:59;;;;;;;1.92;1.50;;;20.60;49.90;;;;;;4996608;28;20093;-60
2021/12/18 08:09:24;;;;;;;1.42;1.30;;;20.60;50.00;;;;;;4988591;28;20136;-60
2021/12/18 08:11:50;;;;;;;2.40;1.67;;;20.60;50.00;;;;;;4996924;28;20082;-60
2021/12/18 08:14:16;;;;;;;1.48;1.30;;;20.60;50.10;;;;;;4987284;28;20035;-60
2021/12/18 08:16:41;;;;;;;2.08;1.40;;;20.70;50.10;;;;;;4986790;28;20035;-60
2021/12/18 08:19:07;;;;;;;1.20;1.10;;;20.70;50.10;;;;;;4993946;28;20050;-60
2021/12/18 08:21:32;;;;;;;1.88;1.00;;;20.70;50.10;;;;;;4993600;28;20126;-60
2021/12/18 08:23:58;;;;;;;5.53;1.15;;;20.70;50.20;;;;;;4991328;28;20129;-61
2021/12/18 08:26:23;;;;;;;1.48;1.17;;;20.70;50.20;;;;;;4977385;28;20179;-61
2021/12/18 08:28:49;;;;;;;28.40;1.73;;;20.70;50.20;;;;;;4976247;28;20496;-60
2021/12/18 08:31:15;;;;;;;2.38;1.20;;;20.70;50.20;;;;;;4984801;28;20042;-60
2021/12/18 08:33:40;;;;;;;1.58;1.23;;;20.80;50.30;;;;;;4985309;28;20042;-60
2021/12/18 08:36:06;;;;;;;1.20;1.10;;;20.80;50.30;;;;;;4994103;28;20042;-60
2021/12/18 08:38:31;;;;;;;1.20;1.10;;;20.80;50.30;;;;;;4975808;28;20474;-61
2021/12/18 08:40:57;;;;;;;1.35;1.13;;;20.80;50.30;;;;;;4973421;28;20049;-59
2021/12/18 08:43:23;;;;;;;1.85;1.10;;;20.80;50.30;;;;;;4988235;28;20100;-60
2021/12/18 08:45:49;;;;;;;1.30;1.20;;;20.80;50.20;;;;;;4984743;28;20045;-60
2021/12/18 08:48:15;;;;;;;1.35;1.10;;;20.80;50.20;;;;;;4974699;28;20038;-60
2021/12/18 08:50:40;;;;;;;1.15;1.05;;;20.80;50.20;;;;;;4979824;28;20038;-60
2021/12/18 08:53:06;;;;;;;1.98;1.35;;;20.80;50.30;;;;;;4989271;28;20121;-60
2021/12/18 08:55:32;;;;;;;1.67;1.23;;;20.80;50.20;;;;;;4983834;28;20084;-58
2021/12/18 08:57:58;;;;;;;1.60;1.25;;;20.80;50.20;;;;;;4996587;28;20042;-60
2021/12/18 09:00:25;;;;;;;1.73;1.00;;;20.90;50.30;;;;;;4976414;28;20086;-60
2021/12/18 09:02:54;;;;;;;1.17;1.08;;;20.90;50.30;;;;;;4977041;28;20509;-60
2021/12/18 09:05:21;;;;;;;1.42;1.20;;;20.90;50.30;;;;;;4988975;28;20088;-61
2021/12/18 09:07:47;;;;;;;1.58;1.10;;;20.80;51.00;;;;;;4986151;28;20194;-60
2021/12/18 09:10:14;;;;;;;2.22;0.80;;;20.80;50.30;;;;;;4976871;28;20087;-60
2021/12/18 09:12:40;;;;;;;1.20;1.10;;;20.90;50.30;;;;;;4985775;28;20096;-61
2021/12/18 09:15:06;;;;;;;1.20;1.10;;;20.90;50.30;;;;;;4992501;28;20058;-62
2021/12/18 09:17:32;;;;;;;1.30;1.20;;;20.90;50.30;;;;;;4993792;28;20121;-59
2021/12/18 09:19:58;;;;;;;1.63;1.10;;;20.90;50.30;;;;;;4990165;28;20144;-60
2021/12/18 09:22:23;;;;;;;1.13;1.00;;;20.90;50.30;;;;;;4993323;28;20050;-59
2021/12/18 09:24:49;;;;;;;1.27;1.13;;;20.90;50.30;;;;;;4987466;28;20050;-61
2021/12/18 09:27:19;;;;;;;2.25;1.15;;;20.90;50.20;;;;;;4988141;28;20038;-60
2021/12/18 09:29:45;;;;;;;2.10;1.50;;;20.90;50.20;;;;;;4987783;28;20046;-63
2021/12/18 09:32:10;;;;;;;2.85;1.95;;;20.90;50.20;;;;;;4995940;28;20057;-63
2021/12/18 09:34:36;;;;;;;5.00;1.70;;;20.90;50.20;;;;;;4985263;28;20043;-63
2021/12/18 09:37:02;;;;;;;5.35;2.25;;;20.90;50.20;;;;;;4976500;28;20047;-63
2021/12/18 09:39:29;;;;;;;4.47;2.13;;;20.90;50.20;;;;;;4982925;28;20477;-63
2021/12/18 09:41:54;;;;;;;2.10;1.73;;;20.90;50.30;;;;;;4982086;28;20537;-61
2021/12/18 09:44:24;;;;;;;6.50;1.63;;;20.90;50.30;;;;;;4992934;28;20053;-62
2021/12/18 09:46:50;;;;;;;4.18;1.70;;;20.90;50.40;;;;;;4976672;28;20541;-62
2021/12/18 09:49:16;;;;;;;3.20;1.48;;;20.80;50.30;;;;;;4977783;28;20125;-62
2021/12/18 09:51:42;;;;;;;4.35;2.00;;;20.80;50.40;;;;;;4994391;28;20034;-62
2021/12/18 09:54:08;;;;;;;5.55;2.08;;;20.90;50.50;;;;;;4989922;28;20034;-62
2021/12/18 09:56:33;;;;;;;7.18;2.25;;;20.80;50.50;;;;;;4991808;28;20042;-62
2021/12/18 09:58:59;;;;;;;6.38;2.13;;;20.90;50.60;;;;;;4988519;28;20046;-62
2021/12/18 10:01:25;;;;;;;10.63;2.00;;;20.90;50.60;;;;;;4987888;28;20042;-62
2021/12/18 10:03:58;;;;;;;6.50;1.83;;;20.90;50.70;;;;;;4992528;28;20046;-62
2021/12/18 10:06:42;;;;;;;8.30;1.80;;;20.90;50.70;;;;;;4992319;28;20154;-62
2021/12/18 10:09:30;;;;;;;3.97;1.45;;;20.90;50.70;;;;;;4989060;28;20034;-61
2021/12/18 10:12:13;;;;;;;11.88;3.08;;;20.90;50.80;;;;;;4994029;28;20046;-64
2021/12/18 10:14:46;;;;;;;9.95;2.35;;;20.90;51.80;;;;;;4991498;28;20208;-63
2021/12/18 10:17:36;;;;;;;11.38;2.67;;;20.90;51.10;;;;;;4995356;28;20049;-63
2021/12/18 10:20:11;;;;;;;10.48;1.88;;;20.90;51.20;;;;;;4992532;28;20046;-63
2021/12/18 10:22:44;;;;;;;13.80;2.47;;;20.90;51.30;;;;;;4980486;28;20089;-63
2021/12/18 10:25:10;;;;;;;9.88;2.88;;;20.90;51.30;;;;;;4975256;28;20054;-62
2021/12/18 10:27:42;;;;;;;7.57;1.85;;;20.90;51.40;;;;;;4978848;28;20038;-63
2021/12/18 10:30:20;;;;;;;7.03;1.83;;;20.90;51.50;;;;;;4990893;28;20050;-64
2021/12/18 10:33:03;;;;;;;6.30;2.20;;;20.90;51.50;;;;;;4976880;28;20045;-63
2021/12/18 10:35:50;;;;;;;5.13;2.10;;;20.90;51.70;;;;;;4970306;28;20065;-63
2021/12/18 10:38:38;;;;;;;8.65;2.30;;;20.90;51.70;;;;;;4979374;28;20045;-62
2021/12/18 10:41:19;;;;;;;12.60;2.20;;;20.90;51.70;;;;;;4991727;28;20039;-62
2021/12/18 10:44:00;;;;;;;10.10;2.55;;;20.90;52.00;;;;;;4988807;28;20047;-62
2021/12/18 10:46:27;;;;;;;;;;;20.90;52.20;;;;;;4974069;28;20062;-57
2021/12/18 10:49:16;;;;;;;11.63;1.98;;;21.00;52.50;;;;;;4974129;28;20261;-62
2021/12/18 10:51:44;;;;;;;9.35;2.15;;;21.00;52.40;;;;;;4974116;28;20081;-62
2021/12/18 10:54:22;;;;;;;5.60;2.15;;;21.00;52.40;;;;;;4974946;28;20048;-62
2021/12/18 10:56:55;;;;;;;8.38;2.65;;;21.00;52.50;;;;;;4994155;28;20544;-63
2021/12/18 10:59:34;;;;;;;7.63;2.10;;;21.00;52.60;;;;;;4991359;28;20093;-62
2021/12/18 11:02:20;;;;;;;8.25;1.90;;;21.00;52.60;;;;;;4994718;28;20078;-63
2021/12/18 11:04:45;;;;;;;7.60;1.88;;;21.00;52.70;;;;;;4991054;28;20556;-63
2021/12/18 11:07:27;;;;;;;6.15;2.25;;;21.10;52.70;;;;;;4994759;28;20046;-62
2021/12/18 11:10:14;;;;;;;6.88;2.25;;;21.00;52.70;;;;;;4993903;28;20354;-62
2021/12/18 11:15:25;;;;;;;8.20;1.70;;;21.00;52.60;;;;;;4980866;28;20115;-62
2021/12/18 11:17:51;;;;;;;6.75;1.73;;;21.00;52.50;;;;;;4972528;28;20039;-60
2021/12/18 11:20:18;;;;;;;9.95;2.33;;;21.00;52.40;;;;;;4982846;28;20045;-62
2021/12/18 11:22:43;;;;;;;4.93;2.20;;;21.00;52.40;;;;;;4973940;28;20494;-63
2021/12/18 11:25:11;;;;;;;7.45;2.45;;;21.00;52.40;;;;;;4979258;28;20049;-62
2021/12/18 11:27:38;;;;;;;13.13;2.60;;;21.00;52.30;;;;;;4994052;28;20069;-62
2021/12/18 11:30:10;;;;;;;9.07;2.63;;;21.00;52.20;;;;;;4973203;28;20046;-62
2021/12/18 11:32:40;;;;;;;12.00;2.75;;;21.00;52.20;;;;;;4994595;28;20050;-62
2021/12/18 11:35:13;;;;;;;8.30;2.73;;;21.00;52.20;;;;;;4971759;28;20034;-62
2021/12/18 11:37:59;;;;;;;6.90;2.60;;;21.00;52.20;;;;;;4972412;28;20074;-64
2021/12/18 11:40:29;;;;;;;9.20;2.65;;;21.00;52.20;;;;;;4973582;28;20039;-63
2021/12/18 11:42:55;;;;;;;7.30;2.67;;;21.00;52.20;;;;;;4988218;28;20492;-65
2021/12/18 11:45:34;;;;;;;9.57;3.30;;;21.00;52.10;;;;;;4976990;28;20047;-63
2021/12/18 11:48:01;;;;;;;7.13;2.13;;;21.00;52.10;;;;;;4975758;28;20046;-62
2021/12/18 11:50:35;;;;;;;11.32;2.78;;;21.00;52.10;;;;;;4989918;28;20034;-63
2021/12/18 11:53:08;;;;;;;10.85;2.80;;;21.00;52.10;;;;;;4982378;28;20118;-62
2021/12/18 11:55:53;;;;;;;14.25;3.10;;;21.00;52.20;;;;;;4974426;28;20049;-62
2021/12/18 11:58:43;;;;;;;6.30;2.53;;;21.00;52.20;;;;;;4980177;28;20046;-62
2021/12/18 12:01:25;;;;;;;10.18;2.70;;;21.00;52.30;;;;;;4963497;28;20101;-62
2021/12/18 12:03:51;;;;;;;10.70;2.83;;;21.00;52.30;;;;;;4990421;28;20046;-62
2021/12/18 12:06:33;;;;;;;8.15;2.40;;;20.90;52.30;;;;;;4976013;28;20038;-62
2021/12/18 12:09:35;;;;;;;11.15;2.50;;;20.90;52.30;;;;;;4992311;28;20054;-62
2021/12/18 12:12:07;;;;;;;8.73;2.65;;;20.90;52.40;;;;;;4993671;28;20045;-62
2021/12/18 12:14:37;;;;;;;12.82;2.88;;;20.90;52.50;;;;;;4993638;28;20046;-62
2021/12/18 12:17:25;;;;;;;8.20;2.58;;;20.90;52.60;;;;;;4994016;28;20052;-62
2021/12/18 12:19:56;;;;;;;7.85;2.78;;;20.90;52.60;;;;;;4992865;28;20129;-62
2021/12/18 12:22:34;;;;;;;8.93;2.47;;;21.00;52.70;;;;;;4993687;28;20104;-62
2021/12/18 12:25:02;;;;;;;7.43;2.50;;;20.90;52.60;;;;;;4993452;28;20064;-62
2021/12/18 12:27:34;;;;;;;6.95;2.42;;;20.90;52.70;;;;;;4993564;28;20062;-62
2021/12/18 12:30:03;;;;;;;11.38;2.78;;;20.90;52.70;;;;;;4994003;28;20082;-62
2021/12/18 12:32:29;;;;;;;13.32;2.67;;;20.90;52.70;;;;;;4993382;28;20042;-62
2021/12/18 12:35:12;;;;;;;10.10;2.13;;;20.90;52.70;;;;;;4993470;28;20069;-62
2021/12/18 12:37:43;;;;;;;8.88;2.53;;;20.90;52.80;;;;;;4994092;28;20069;-62
2021/12/18 12:40:31;;;;;;;11.15;2.60;;;20.90;53.50;;;;;;4992094;28;20049;-62
2021/12/18 12:43:22;;;;;;;15.02;3.00;;;20.90;52.70;;;;;;4996001;28;20043;-62
2021/12/18 12:45:50;;;;;;;9.45;2.20;;;20.90;52.80;;;;;;4997312;28;20042;-63
2021/12/18 12:48:17;;;;;;;6.53;2.00;;;20.90;52.80;;;;;;4996975;28;20042;-63
2021/12/18 12:50:53;;;;;;;9.10;2.00;;;20.90;52.80;;;;;;4995498;28;20046;-63
2021/12/18 12:53:19;;;;;;;12.38;2.78;;;20.90;52.80;;;;;;4997255;28;20046;-62
2021/12/18 12:55:49;;;;;;;7.13;1.98;;;20.90;52.80;;;;;;4996683;28;20048;-62
2021/12/18 12:58:24;;;;;;;7.75;1.95;;;20.90;52.70;;;;;;4996732;28;20049;-62
2021/12/18 13:00:57;;;;;;;9.00;2.00;;;20.90;52.60;;;;;;4996747;28;20093;-62
2021/12/18 13:03:27;;;;;;;8.43;2.30;;;20.90;52.60;;;;;;4996606;28;20042;-62
2021/12/18 13:05:57;;;;;;;7.80;2.00;;;20.90;52.50;;;;;;4996506;28;20447;-62
2021/12/18 13:08:24;;;;;;;7.40;2.00;;;20.90;52.50;;;;;;4996443;28;20054;-62
2021/12/18 13:10:53;;;;;;;9.18;2.33;;;20.90;52.40;;;;;;4996916;28;20065;-62
2021/12/18 13:13:21;;;;;;;11.15;1.58;;;20.90;52.40;;;;;;4996805;28;20042;-62
2021/12/18 13:15:55;;;;;;;6.38;2.00;;;20.90;52.30;;;;;;4996534;28;20125;-62
2021/12/18 13:18:31;;;;;;;4.97;1.98;;;20.90;52.30;;;;;;4996400;28;20085;-62
2021/12/18 13:21:05;;;;;;;5.75;1.75;;;20.80;52.20;;;;;;4996409;28;20465;-63
2021/12/18 13:23:42;;;;;;;6.13;1.70;;;20.80;52.20;;;;;;4996585;28;20058;-62
2021/12/18 13:26:09;;;;;;;9.48;1.80;;;20.80;52.20;;;;;;4995990;28;20493;-62
2021/12/18 13:28:46;;;;;;;8.15;1.92;;;20.80;52.20;;;;;;4996171;28;20053;-62
2021/12/18 13:31:11;;;;;;;12.50;2.40;;;20.80;52.20;;;;;;4996509;28;20042;-62
2021/12/18 13:33:37;;;;;;;7.70;1.75;;;20.80;52.20;;;;;;4995765;28;20038;-62